createdAt,value
2023-02-01T00:00:02.274Z,91.79
2023-02-01T00:02:52.408Z,91.68
2023-02-01T00:05:19.617Z,91.92
2023-02-01T00:07:48.652Z,91.69
2023-02-01T00:10:15.991Z,91.94
2023-02-01T00:12:42.811Z,91.87
2023-02-01T00:15:11.376Z,91.79
2023-02-01T00:17:39.259Z,91.74
2023-02-01T00:20:07.045Z,91.86
2023-02-01T00:22:33.834Z,91.79
2023-02-01T00:25:00.861Z,91.72
2023-02-01T00:27:27.716Z,91.45
2023-02-01T00:29:56.104Z,91.39
2023-02-01T00:32:23.408Z,91.20
2023-02-01T00:34:50.272Z,91.03
2023-02-01T00:37:17.057Z,90.97
2023-02-01T00:39:44.539Z,90.88
2023-02-01T00:42:11.961Z,90.67
2023-02-01T00:44:38.767Z,90.46
2023-02-01T00:47:06.080Z,90.42
2023-02-01T00:49:33.697Z,90.16
2023-02-01T00:52:00.495Z,89.99
2023-02-01T00:54:27.563Z,89.87
2023-02-01T00:56:54.370Z,89.77
2023-02-01T00:59:21.534Z,89.40
2023-02-01T01:01:48.752Z,89.26
2023-02-01T01:04:15.614Z,89.26
2023-02-01T01:06:42.501Z,89.04
2023-02-01T01:09:10.044Z,88.60
2023-02-01T01:11:39.305Z,88.66
2023-02-01T01:14:07.727Z,88.66
2023-02-01T01:16:36.572Z,88.44
2023-02-01T01:19:04.774Z,88.26
2023-02-01T01:21:33.425Z,88.33
2023-02-01T01:24:00.512Z,88.18
2023-02-01T01:26:29.743Z,88.22
2023-02-01T01:28:58.834Z,88.06
2023-02-01T01:31:26.397Z,87.91
2023-02-01T01:33:55.601Z,87.92
2023-02-01T01:36:23.237Z,87.96
2023-02-01T01:38:51.251Z,88.05
2023-02-01T01:41:21.507Z,87.99
2023-02-01T01:43:57.636Z,87.68
2023-02-01T01:46:28.049Z,87.68
2023-02-01T01:49:03.100Z,87.65
2023-02-01T01:51:33.897Z,87.28
2023-02-01T01:54:07.717Z,87.33
2023-02-01T01:56:36.968Z,87.20
2023-02-01T01:59:06.818Z,87.14
2023-02-01T02:01:34.060Z,87.23
2023-02-01T02:04:02.131Z,87.02
2023-02-01T02:06:42.839Z,86.97
2023-02-01T02:09:10.060Z,86.74
2023-02-01T02:11:37.476Z,86.54
2023-02-01T02:14:06.165Z,86.69
2023-02-01T02:16:49.430Z,86.39
2023-02-01T02:19:44.003Z,86.25
2023-02-01T02:22:46.647Z,86.16
2023-02-01T02:25:32.475Z,85.91
2023-02-01T02:28:11.928Z,85.66
2023-02-01T02:31:18.482Z,85.77
2023-02-01T02:34:08.911Z,85.67
2023-02-01T02:36:49.589Z,85.27
2023-02-01T02:39:24.403Z,85.22
2023-02-01T02:42:18.885Z,85.29
2023-02-01T02:45:09.196Z,85.33
2023-02-01T02:47:44.623Z,85.27
2023-02-01T02:50:40.127Z,85.27
2023-02-01T02:53:32.479Z,85.21
2023-02-01T02:56:18.901Z,85.40
2023-02-01T02:59:06.122Z,85.44
2023-02-01T03:01:49.844Z,85.31
2023-02-01T03:04:18.684Z,85.57
2023-02-01T03:06:47.721Z,85.51
2023-02-01T03:09:21.014Z,85.76
2023-02-01T03:12:08.883Z,85.79
2023-02-01T03:14:38.451Z,85.74
2023-02-01T03:17:10.560Z,85.71
2023-02-01T03:19:44.802Z,85.61
2023-02-01T03:22:14.680Z,85.60
2023-02-01T03:24:45.525Z,85.88
2023-02-01T03:27:19.830Z,85.90
2023-02-01T03:29:51.916Z,86.02
2023-02-01T03:32:19.604Z,86.37
2023-02-01T03:34:47.030Z,86.38
2023-02-01T03:37:18.550Z,86.34
2023-02-01T03:39:51.589Z,86.46
2023-02-01T03:42:24.707Z,86.75
2023-02-01T03:44:56.195Z,86.79
2023-02-01T03:47:26.126Z,86.83
2023-02-01T03:49:58.641Z,86.82
2023-02-01T03:52:30.738Z,87.12
2023-02-01T03:54:59.137Z,87.26
2023-02-01T03:57:32.309Z,87.22
2023-02-01T04:00:09.784Z,87.32
2023-02-01T04:02:41.121Z,87.40
2023-02-01T04:05:09.005Z,87.59
2023-02-01T04:07:36.417Z,87.41
2023-02-01T04:10:04.784Z,87.34
2023-02-01T04:12:31.700Z,87.38
2023-02-01T04:14:59.247Z,87.20
2023-02-01T04:17:26.273Z,87.27
2023-02-01T04:19:55.266Z,87.35
2023-02-01T04:22:22.386Z,87.16
2023-02-01T04:24:49.592Z,86.86
2023-02-01T04:27:16.594Z,86.99
2023-02-01T04:29:43.485Z,86.68
2023-02-01T04:32:10.373Z,86.58
2023-02-01T04:34:37.316Z,86.46
2023-02-01T04:37:04.627Z,86.49
2023-02-01T04:39:31.803Z,86.36
2023-02-01T04:41:59.082Z,86.35
2023-02-01T04:44:26.016Z,86.08
2023-02-01T04:46:53.119Z,86.29
2023-02-01T04:49:21.192Z,86.16
2023-02-01T04:51:48.198Z,86.09
2023-02-01T04:54:15.402Z,85.96
2023-02-01T04:56:42.882Z,85.79
2023-02-01T04:59:09.992Z,85.86
2023-02-01T05:01:36.951Z,85.81
2023-02-01T05:04:03.908Z,85.73
2023-02-01T05:06:31.027Z,85.66
2023-02-01T05:08:58.001Z,85.41
2023-02-01T05:11:42.423Z,85.39
2023-02-01T05:14:09.503Z,85.28
2023-02-01T05:16:36.458Z,85.32
2023-02-01T05:19:03.256Z,85.14
2023-02-01T05:21:30.544Z,85.12
2023-02-01T05:24:14.148Z,85.04
2023-02-01T05:26:42.321Z,85.10
2023-02-01T05:29:10.348Z,85.17
2023-02-01T05:31:37.885Z,85.25
2023-02-01T05:34:05.552Z,85.06
2023-02-01T05:36:32.355Z,85.09
2023-02-01T05:38:59.357Z,84.95
2023-02-01T05:41:26.689Z,85.03
2023-02-01T05:43:53.747Z,84.80
2023-02-01T05:46:20.632Z,84.86
2023-02-01T05:48:47.800Z,84.82
2023-02-01T05:51:15.025Z,84.83
2023-02-01T05:53:41.945Z,84.95
2023-02-01T05:56:10.097Z,84.91
2023-02-01T05:58:36.891Z,84.85
2023-02-01T06:01:04.824Z,84.84
2023-02-01T06:03:31.887Z,84.93
2023-02-01T06:05:58.818Z,84.80
2023-02-01T06:08:26.845Z,84.86
2023-02-01T06:10:59.437Z,84.89
2023-02-01T06:13:26.351Z,85.00
2023-02-01T06:15:53.512Z,85.04
2023-02-01T06:18:20.663Z,85.10
2023-02-01T06:20:47.536Z,85.06
2023-02-01T06:23:14.512Z,85.06
2023-02-01T06:25:41.422Z,85.01
2023-02-01T06:28:09.283Z,85.12
2023-02-01T06:30:36.479Z,84.84
2023-02-01T06:33:03.434Z,84.83
2023-02-01T06:35:30.301Z,84.75
2023-02-01T06:37:59.129Z,84.78
2023-02-01T06:40:26.344Z,84.77
2023-02-01T06:42:53.417Z,84.82
2023-02-01T06:45:20.500Z,84.91
2023-02-01T06:47:47.403Z,84.78
2023-02-01T06:50:14.989Z,84.57
2023-02-01T06:52:41.890Z,84.62
2023-02-01T06:55:10.435Z,84.49
2023-02-01T06:57:37.308Z,84.58
2023-02-01T07:00:06.209Z,84.62
2023-02-01T07:02:33.611Z,85.79
2023-02-01T07:05:00.626Z,86.26
2023-02-01T07:07:27.787Z,86.67
2023-02-01T07:09:54.926Z,86.67
2023-02-01T07:12:22.394Z,85.89
2023-02-01T07:14:49.506Z,84.90
2023-02-01T07:17:20.097Z,84.32
2023-02-01T07:19:47.012Z,84.12
2023-02-01T07:22:13.966Z,84.11
2023-02-01T07:24:40.844Z,83.91
2023-02-01T07:27:07.740Z,83.89
2023-02-01T07:29:34.763Z,84.10
2023-02-01T07:32:03.528Z,84.08
2023-02-01T07:34:31.654Z,84.01
2023-02-01T07:36:58.703Z,84.23
2023-02-01T07:39:25.581Z,84.40
2023-02-01T07:41:53.093Z,84.30
2023-02-01T07:44:25.271Z,84.32
2023-02-01T07:46:52.194Z,84.39
2023-02-01T07:49:19.536Z,84.25
2023-02-01T07:51:46.611Z,84.29
2023-02-01T07:54:13.469Z,84.23
2023-02-01T07:56:40.727Z,84.36
2023-02-01T07:59:08.782Z,84.24
2023-02-01T08:01:35.784Z,84.26
2023-02-01T08:04:04.793Z,84.24
2023-02-01T08:06:33.269Z,84.26
2023-02-01T08:09:00.525Z,84.27
2023-02-01T08:11:28.543Z,84.21
2023-02-01T08:13:56.284Z,84.12
2023-02-01T08:16:24.503Z,84.02
2023-02-01T08:18:51.980Z,84.00
2023-02-01T08:21:21.332Z,84.08
2023-02-01T08:23:48.564Z,84.01
2023-02-01T08:26:18.211Z,84.21
2023-02-01T08:28:47.643Z,84.36
2023-02-01T08:31:16.986Z,84.26
2023-02-01T08:33:45.248Z,84.04
2023-02-01T08:36:13.282Z,84.30
2023-02-01T08:38:41.307Z,84.23
2023-02-01T08:41:14.812Z,84.23
2023-02-01T08:43:42.191Z,84.58
2023-02-01T08:46:10.171Z,84.59
2023-02-01T08:48:38.681Z,84.75
2023-02-01T08:51:07.705Z,84.70
2023-02-01T08:53:35.086Z,84.77
2023-02-01T08:56:02.805Z,84.72
2023-02-01T08:58:29.995Z,84.28
2023-02-01T09:00:56.815Z,84.28
2023-02-01T09:03:23.766Z,83.93
2023-02-01T09:05:51.974Z,84.05
2023-02-01T09:08:21.336Z,83.80
2023-02-01T09:10:48.347Z,83.48
2023-02-01T09:13:15.428Z,83.31
2023-02-01T09:15:42.298Z,83.19
2023-02-01T09:18:09.474Z,83.09
2023-02-01T09:20:36.786Z,82.92
2023-02-01T09:23:03.634Z,82.67
2023-02-01T09:25:30.887Z,82.79
2023-02-01T09:27:57.788Z,82.61
2023-02-01T09:30:24.945Z,82.35
2023-02-01T09:32:52.068Z,82.36
2023-02-01T09:35:19.252Z,82.49
2023-02-01T09:37:46.025Z,82.12
2023-02-01T09:40:18.644Z,82.28
2023-02-01T09:43:09.169Z,82.15
2023-02-01T09:45:45.580Z,82.06
2023-02-01T09:48:18.792Z,82.24
2023-02-01T09:50:51.161Z,81.87
2023-02-01T09:53:24.820Z,81.20
2023-02-01T09:55:56.313Z,80.66
2023-02-01T09:58:29.537Z,80.09
2023-02-01T10:01:01.757Z,78.82
2023-02-01T10:03:32.553Z,77.67
2023-02-01T10:06:20.748Z,76.95
2023-02-01T10:09:05.648Z,76.76
2023-02-01T10:11:50.508Z,76.61
2023-02-01T10:14:34.437Z,76.40
2023-02-01T10:17:11.286Z,76.53
2023-02-01T10:19:40.463Z,76.94
2023-02-01T10:22:11.152Z,76.80
2023-02-01T10:24:48.175Z,77.28
2023-02-01T10:27:19.827Z,77.22
2023-02-01T10:29:50.513Z,77.55
2023-02-01T10:32:21.905Z,77.64
2023-02-01T10:34:54.209Z,77.86
2023-02-01T10:37:29.661Z,77.50
2023-02-01T10:39:59.981Z,77.80
2023-02-01T10:42:29.956Z,77.86
2023-02-01T10:44:58.834Z,77.83
2023-02-01T10:47:25.763Z,77.68
2023-02-01T10:50:00.551Z,77.88
2023-02-01T10:52:37.296Z,78.36
2023-02-01T10:55:31.374Z,78.29
2023-02-01T10:58:01.697Z,78.18
2023-02-01T11:00:29.322Z,78.47
2023-02-01T11:02:57.363Z,78.25
2023-02-01T11:05:24.870Z,77.89
2023-02-01T11:07:55.812Z,77.72
2023-02-01T11:10:38.145Z,77.72
2023-02-01T11:13:06.659Z,77.65
2023-02-01T11:15:33.594Z,77.38
2023-02-01T11:18:17.053Z,76.93
2023-02-01T11:20:45.992Z,76.93
2023-02-01T11:23:20.368Z,76.67
2023-02-01T11:25:55.021Z,76.06
2023-02-01T11:28:27.683Z,76.03
2023-02-01T11:30:57.197Z,76.00
2023-02-01T11:33:32.338Z,75.53
2023-02-01T11:36:00.268Z,75.86
2023-02-01T11:38:31.301Z,76.22
2023-02-01T11:41:13.441Z,76.19
2023-02-01T11:43:51.808Z,76.72
2023-02-01T11:46:26.537Z,76.96
2023-02-01T11:48:54.537Z,77.04
2023-02-01T11:51:46.658Z,77.34
2023-02-01T11:54:28.915Z,77.47
2023-02-01T11:57:10.089Z,77.51
2023-02-01T11:59:57.179Z,77.34
2023-02-01T12:02:46.729Z,77.05
2023-02-01T12:05:29.888Z,76.91
2023-02-01T12:08:19.449Z,76.78
2023-02-01T12:11:00.047Z,76.62
2023-02-01T12:13:39.541Z,77.18
2023-02-01T12:16:19.558Z,77.44
2023-02-01T12:19:17.355Z,77.49
2023-02-01T12:22:05.535Z,77.51
2023-02-01T12:25:08.171Z,77.71
2023-02-01T12:28:08.497Z,78.23
2023-02-01T12:30:56.665Z,77.79
2023-02-01T12:33:34.644Z,77.90
2023-02-01T12:36:18.772Z,78.32
2023-02-01T12:38:55.697Z,78.25
2023-02-01T12:41:37.658Z,78.32
2023-02-01T12:44:09.750Z,78.48
2023-02-01T12:46:42.367Z,78.55
2023-02-01T12:49:16.018Z,78.89
2023-02-01T12:51:45.906Z,78.84
2023-02-01T12:54:22.442Z,78.65
2023-02-01T12:56:56.503Z,78.99
2023-02-01T12:59:29.319Z,79.08
2023-02-01T13:02:00.322Z,78.92
2023-02-01T13:04:34.282Z,78.80
2023-02-01T13:07:08.638Z,78.91
2023-02-01T13:09:45.587Z,78.97
2023-02-01T13:12:14.667Z,78.88
2023-02-01T13:14:47.401Z,79.13
2023-02-01T13:17:18.330Z,79.37
2023-02-01T13:19:51.710Z,79.74
2023-02-01T13:22:23.484Z,79.76
2023-02-01T13:24:54.063Z,79.63
2023-02-01T13:27:21.125Z,79.88
2023-02-01T13:29:54.405Z,79.68
2023-02-01T13:33:52.814Z,79.65
2023-02-01T13:35:58.676Z,79.60
2023-02-01T13:38:48.286Z,79.64
2023-02-01T13:41:29.183Z,79.85
2023-02-01T13:44:00.312Z,79.99
2023-02-01T13:46:28.456Z,80.27
2023-02-01T13:48:58.653Z,79.91
2023-02-01T13:51:39.837Z,80.06
2023-02-01T13:54:08.106Z,80.32
2023-02-01T13:56:44.283Z,80.38
2023-02-01T13:59:41.206Z,80.52
2023-02-01T14:02:54.020Z,80.41
2023-02-01T14:06:01.480Z,80.83
2023-02-01T14:08:41.807Z,80.90
2023-02-01T14:11:09.087Z,80.86
2023-02-01T14:13:38.502Z,80.99
2023-02-01T14:16:27.015Z,81.27
2023-02-01T14:19:02.832Z,81.24
2023-02-01T14:21:34.345Z,81.25
2023-02-01T14:24:05.144Z,81.34
2023-02-01T14:26:48.046Z,81.12
2023-02-01T14:29:27.974Z,81.14
2023-02-01T14:32:05.173Z,80.97
2023-02-01T14:34:44.464Z,81.24
2023-02-01T14:37:14.452Z,80.98
2023-02-01T14:39:54.306Z,80.81
2023-02-01T14:42:27.373Z,80.59
2023-02-01T14:44:58.625Z,80.85
2023-02-01T14:47:37.568Z,80.89
2023-02-01T14:50:29.179Z,80.64
2023-02-01T14:53:13.696Z,80.62
2023-02-01T14:55:44.084Z,80.58
2023-02-01T14:58:21.095Z,80.42
2023-02-01T15:00:55.755Z,80.43
2023-02-01T15:03:37.357Z,80.49
2023-02-01T15:06:07.006Z,80.52
2023-02-01T15:08:38.157Z,80.59
2023-02-01T15:11:09.843Z,80.58
2023-02-01T15:13:37.583Z,80.73
2023-02-01T15:16:07.290Z,80.75
2023-02-01T15:18:35.235Z,80.73
2023-02-01T15:21:26.805Z,80.78
2023-02-01T15:23:52.102Z,80.93
2023-02-01T15:26:31.143Z,80.95
2023-02-01T15:29:00.287Z,81.07
2023-02-01T15:31:38.847Z,81.14
2023-02-01T15:34:06.921Z,80.99
2023-02-01T15:36:34.850Z,81.23
2023-02-01T15:39:21.316Z,81.17
2023-02-01T15:41:51.155Z,81.26
2023-02-01T15:44:23.878Z,81.36
2023-02-01T15:46:52.725Z,81.56
2023-02-01T15:49:31.237Z,81.72
2023-02-01T15:51:59.224Z,81.70
2023-02-01T15:54:32.085Z,81.70
2023-02-01T15:57:01.039Z,81.89
2023-02-01T15:59:31.673Z,81.93
2023-02-01T16:01:58.930Z,82.17
2023-02-01T16:04:27.657Z,82.31
2023-02-01T16:06:58.534Z,82.30
2023-02-01T16:09:28.442Z,82.30
2023-02-01T16:12:00.976Z,82.58
2023-02-01T16:14:28.337Z,82.53
2023-02-01T16:16:56.941Z,82.59
2023-02-01T16:19:28.799Z,82.78
2023-02-01T16:21:55.825Z,82.77
2023-02-01T16:24:24.161Z,82.89
2023-02-01T16:26:51.314Z,82.97
2023-02-01T16:29:18.143Z,83.24
2023-02-01T16:31:46.117Z,83.19
2023-02-01T16:34:19.050Z,83.15
2023-02-01T16:36:53.014Z,83.27
2023-02-01T16:39:20.518Z,83.30
2023-02-01T16:41:47.347Z,83.28
2023-02-01T16:44:14.636Z,83.53
2023-02-01T16:46:45.979Z,83.42
2023-02-01T16:49:22.461Z,83.53
2023-02-01T16:51:50.838Z,83.44
2023-02-01T16:54:17.715Z,83.56
2023-02-01T16:56:46.690Z,83.76
2023-02-01T16:59:18.466Z,83.70
2023-02-01T17:01:45.692Z,83.81
2023-02-01T17:04:12.926Z,83.73
2023-02-01T17:06:40.372Z,83.92
2023-02-01T17:09:08.439Z,83.67
2023-02-01T17:11:35.803Z,83.75
2023-02-01T17:14:14.008Z,83.78
2023-02-01T17:16:41.533Z,83.83
2023-02-01T17:19:15.167Z,83.93
2023-02-01T17:21:45.214Z,84.05
2023-02-01T17:24:14.145Z,84.09
2023-02-01T17:26:41.034Z,83.84
2023-02-01T17:29:07.957Z,84.03
2023-02-01T17:31:38.607Z,83.90
2023-02-01T17:34:05.874Z,83.78
2023-02-01T17:36:32.805Z,83.96
2023-02-01T17:39:06.233Z,84.09
2023-02-01T17:41:33.975Z,83.83
2023-02-01T17:44:01.057Z,83.79
2023-02-01T17:46:28.541Z,83.72
2023-02-01T17:48:55.476Z,83.90
2023-02-01T17:51:27.359Z,84.11
2023-02-01T17:53:54.434Z,84.31
2023-02-01T17:56:23.460Z,84.43
2023-02-01T17:58:50.479Z,84.54
2023-02-01T18:01:20.265Z,84.58
2023-02-01T18:03:48.068Z,84.98
2023-02-01T18:06:17.294Z,84.97
2023-02-01T18:08:44.500Z,84.97
2023-02-01T18:11:15.886Z,84.57
2023-02-01T18:13:43.139Z,84.33
2023-02-01T18:16:20.159Z,84.47
2023-02-01T18:18:47.380Z,84.45
2023-02-01T18:21:14.503Z,84.43
2023-02-01T18:23:41.809Z,84.50
2023-02-01T18:26:11.121Z,84.79
2023-02-01T18:28:38.121Z,85.08
2023-02-01T18:31:07.944Z,85.24
2023-02-01T18:33:34.988Z,85.33
2023-02-01T18:36:01.968Z,85.39
2023-02-01T18:38:29.385Z,85.66
2023-02-01T18:40:58.211Z,85.84
2023-02-01T18:43:26.746Z,85.70
2023-02-01T18:45:55.259Z,85.65
2023-02-01T18:48:22.853Z,85.61
2023-02-01T18:50:52.146Z,85.70
2023-02-01T18:53:21.406Z,85.77
2023-02-01T18:55:48.961Z,85.64
2023-02-01T18:58:17.915Z,85.64
2023-02-01T19:00:46.274Z,85.55
2023-02-01T19:03:14.389Z,85.78
2023-02-01T19:05:41.804Z,85.71
2023-02-01T19:08:09.615Z,85.72
2023-02-01T19:10:38.698Z,85.52
2023-02-01T19:13:05.964Z,85.63
2023-02-01T19:15:36.184Z,85.57
2023-02-01T19:18:03.054Z,85.69
2023-02-01T19:20:30.403Z,85.85
2023-02-01T19:22:58.279Z,85.65
2023-02-01T19:25:29.466Z,86.06
2023-02-01T19:27:58.705Z,85.96
2023-02-01T19:30:26.193Z,86.12
2023-02-01T19:32:53.353Z,85.89
2023-02-01T19:35:22.506Z,86.18
2023-02-01T19:37:50.760Z,86.07
2023-02-01T19:40:19.344Z,86.10
2023-02-01T19:42:46.639Z,86.28
2023-02-01T19:45:14.573Z,86.30
2023-02-01T19:47:42.317Z,86.56
2023-02-01T19:50:12.508Z,86.67
2023-02-01T19:52:39.300Z,86.68
2023-02-01T19:55:07.535Z,86.87
2023-02-01T19:57:36.375Z,86.77
2023-02-01T20:00:04.248Z,87.08
2023-02-01T20:02:30.240Z,86.91
2023-02-01T20:04:57.656Z,86.94
2023-02-01T20:07:24.620Z,87.09
2023-02-01T20:09:51.444Z,86.97
2023-02-01T20:12:18.972Z,87.11
2023-02-01T20:14:45.799Z,87.02
2023-02-01T20:17:17.795Z,87.03
2023-02-01T20:19:45.305Z,86.86
2023-02-01T20:22:12.248Z,87.01
2023-02-01T20:24:39.865Z,86.88
2023-02-01T20:27:10.362Z,86.82
2023-02-01T20:29:37.451Z,86.62
2023-02-01T20:32:04.522Z,86.57
2023-02-01T20:34:31.943Z,86.49
2023-02-01T20:36:58.777Z,86.47
2023-02-01T20:39:25.560Z,86.80
2023-02-01T20:41:52.506Z,86.60
2023-02-01T20:44:19.559Z,86.75
2023-02-01T20:46:47.615Z,86.72
2023-02-01T20:49:14.955Z,86.70
2023-02-01T20:51:41.753Z,86.77
2023-02-01T20:54:09.028Z,86.90
2023-02-01T20:56:35.995Z,86.96
2023-02-01T20:59:12.100Z,86.93
2023-02-01T21:01:53.227Z,87.06
2023-02-01T21:04:20.345Z,87.40
2023-02-01T21:06:47.243Z,87.17
2023-02-01T21:09:14.255Z,87.27
2023-02-01T21:11:41.027Z,87.30
2023-02-01T21:14:08.089Z,87.38
2023-02-01T21:16:35.526Z,87.35
2023-02-01T21:19:02.559Z,87.29
2023-02-01T21:21:29.530Z,87.30
2023-02-01T21:23:58.400Z,87.26
2023-02-01T21:26:26.462Z,87.29
2023-02-01T21:28:54.906Z,87.32
2023-02-01T21:31:25.042Z,87.22
2023-02-01T21:33:52.052Z,86.97
2023-02-01T21:36:19.938Z,87.00
2023-02-01T21:38:47.424Z,86.90
2023-02-01T21:41:46.290Z,86.87
2023-02-01T21:44:14.868Z,86.91
2023-02-01T21:46:42.420Z,86.86
2023-02-01T21:49:09.360Z,86.74
2023-02-01T21:51:38.133Z,86.61
2023-02-01T21:54:05.038Z,86.62
2023-02-01T21:56:32.301Z,86.69
2023-02-01T21:58:59.262Z,86.53
2023-02-01T22:01:26.761Z,86.54
2023-02-01T22:03:53.886Z,86.48
2023-02-01T22:06:27.339Z,86.50
2023-02-01T22:08:54.330Z,86.49
2023-02-01T22:11:21.619Z,86.58
2023-02-01T22:13:48.789Z,86.53
2023-02-01T22:16:18.339Z,86.41
2023-02-01T22:18:45.679Z,86.37
2023-02-01T22:21:12.677Z,86.38
2023-02-01T22:23:39.818Z,86.57
2023-02-01T22:26:09.850Z,86.50
2023-02-01T22:28:36.924Z,86.56
2023-02-01T22:31:06.233Z,86.57
2023-02-01T22:33:33.764Z,86.37
2023-02-01T22:36:00.771Z,86.56
2023-02-01T22:38:30.993Z,86.54
2023-02-01T22:40:58.558Z,86.54
2023-02-01T22:43:25.680Z,86.46
2023-02-01T22:45:52.803Z,86.58
2023-02-01T22:48:19.762Z,86.52
2023-02-01T22:50:47.337Z,86.72
2023-02-01T22:53:14.145Z,86.94
2023-02-01T22:55:42.483Z,86.76
2023-02-01T22:58:09.353Z,86.87
2023-02-01T23:00:36.251Z,86.85
2023-02-01T23:03:03.523Z,87.02
2023-02-01T23:05:30.526Z,86.96
2023-02-01T23:07:57.473Z,86.64
2023-02-01T23:10:24.306Z,86.55
2023-02-01T23:12:51.757Z,86.47
2023-02-01T23:15:19.891Z,86.46
2023-02-01T23:17:47.372Z,86.31
2023-02-01T23:20:17.387Z,86.59
2023-02-01T23:22:44.642Z,86.83
2023-02-01T23:25:12.664Z,87.09
2023-02-01T23:27:39.784Z,87.27
2023-02-01T23:30:08.434Z,87.41
2023-02-01T23:32:36.293Z,87.52
2023-02-01T23:35:03.762Z,87.71
2023-02-01T23:37:30.580Z,87.83
2023-02-01T23:39:57.414Z,88.21
2023-02-01T23:42:24.547Z,88.26
2023-02-01T23:44:51.657Z,88.29
2023-02-01T23:47:18.416Z,88.43
2023-02-01T23:49:45.629Z,88.71
2023-02-01T23:52:12.882Z,88.78
2023-02-01T23:54:39.646Z,88.86
2023-02-01T23:57:06.589Z,88.95
2023-02-01T23:59:33.388Z,88.99
